createdAt,value
2022-11-07T00:02:09.914Z,23.56
2022-11-07T00:04:38.672Z,23.56
2022-11-07T00:07:05.115Z,23.56
2022-11-07T00:09:31.957Z,23.55
2022-11-07T00:11:58.980Z,23.54
2022-11-07T00:14:25.931Z,23.54
2022-11-07T00:16:53.692Z,23.55
2022-11-07T00:19:23.477Z,23.52
2022-11-07T00:21:52.973Z,23.53
2022-11-07T00:24:31.094Z,23.54
2022-11-07T00:26:58.643Z,23.53
2022-11-07T00:29:28.650Z,23.52
2022-11-07T00:32:04.928Z,23.52
2022-11-07T00:34:31.407Z,23.51
2022-11-07T00:36:58.463Z,23.51
2022-11-07T00:39:24.890Z,23.52
2022-11-07T00:41:51.350Z,23.51
2022-11-07T00:44:17.763Z,23.51
2022-11-07T00:46:45.269Z,23.52
2022-11-07T00:49:11.714Z,23.53
2022-11-07T00:51:38.118Z,23.53
2022-11-07T00:54:04.565Z,23.51
2022-11-07T00:56:30.982Z,23.53
2022-11-07T00:58:57.453Z,23.51
2022-11-07T01:01:23.972Z,23.51
2022-11-07T01:03:50.315Z,23.51
2022-11-07T01:06:16.959Z,23.50
2022-11-07T01:08:43.531Z,23.49
2022-11-07T01:11:09.949Z,23.49
2022-11-07T01:13:36.396Z,23.49
2022-11-07T01:16:06.227Z,23.49
2022-11-07T01:18:33.671Z,23.49
2022-11-07T01:21:02.059Z,23.50
2022-11-07T01:23:31.533Z,23.46
2022-11-07T01:25:58.826Z,23.47
2022-11-07T01:28:25.647Z,23.47
2022-11-07T01:30:52.079Z,23.47
2022-11-07T01:33:18.531Z,23.47
2022-11-07T01:35:44.995Z,23.47
2022-11-07T01:38:11.485Z,23.48
2022-11-07T01:40:37.903Z,23.47
2022-11-07T01:43:04.529Z,23.47
2022-11-07T01:45:33.284Z,23.47
2022-11-07T01:47:57.900Z,23.47
2022-11-07T01:50:25.002Z,23.46
2022-11-07T01:52:51.057Z,23.46
2022-11-07T01:55:17.505Z,23.45
2022-11-07T01:57:44.127Z,23.45
2022-11-07T02:00:10.555Z,23.44
2022-11-07T02:02:39.273Z,23.45
2022-11-07T02:05:05.579Z,23.45
2022-11-07T02:07:32.270Z,23.45
2022-11-07T02:09:58.793Z,23.45
2022-11-07T02:12:26.738Z,23.45
2022-11-07T02:14:51.685Z,23.44
2022-11-07T02:17:28.010Z,23.43
2022-11-07T02:19:55.871Z,23.44
2022-11-07T02:22:36.462Z,23.44
2022-11-07T02:25:06.815Z,23.44
2022-11-07T02:27:51.387Z,23.44
2022-11-07T02:30:17.752Z,23.42
2022-11-07T02:32:47.520Z,23.41
2022-11-07T02:35:23.138Z,23.43
2022-11-07T02:38:01.514Z,23.43
2022-11-07T02:40:30.208Z,23.43
2022-11-07T02:42:55.400Z,23.42
2022-11-07T02:45:24.551Z,23.44
2022-11-07T02:47:51.029Z,23.41
2022-11-07T02:50:17.480Z,23.42
2022-11-07T02:52:43.891Z,23.42
2022-11-07T02:55:10.715Z,23.42
2022-11-07T02:57:37.158Z,23.41
2022-11-07T03:00:04.523Z,23.42
2022-11-07T03:02:32.278Z,23.41
2022-11-07T03:04:58.549Z,23.42
2022-11-07T03:07:25.032Z,23.41
2022-11-07T03:09:51.455Z,23.40
2022-11-07T03:12:17.919Z,23.37
2022-11-07T03:14:44.353Z,23.39
2022-11-07T03:17:18.588Z,23.39
2022-11-07T03:19:47.870Z,23.39
2022-11-07T03:22:14.716Z,23.38
2022-11-07T03:24:42.044Z,23.39
2022-11-07T03:27:08.657Z,23.37
2022-11-07T03:29:35.112Z,23.37
2022-11-07T03:32:01.572Z,23.39
2022-11-07T03:34:27.978Z,23.41
2022-11-07T03:36:54.541Z,23.39
2022-11-07T03:39:25.843Z,23.40
2022-11-07T03:41:47.501Z,23.40
2022-11-07T03:44:13.968Z,23.40
2022-11-07T03:46:40.377Z,23.41
2022-11-07T03:49:06.877Z,23.41
2022-11-07T03:51:33.277Z,23.40
2022-11-07T03:53:59.728Z,23.41
2022-11-07T03:56:26.174Z,23.40
2022-11-07T03:58:52.617Z,23.39
2022-11-07T04:01:25.633Z,23.39
2022-11-07T04:03:56.048Z,23.39
2022-11-07T04:06:21.215Z,23.38
2022-11-07T04:08:47.668Z,23.39
2022-11-07T04:11:14.901Z,23.38
2022-11-07T04:13:41.333Z,23.38
2022-11-07T04:16:14.950Z,23.38
2022-11-07T04:18:39.670Z,23.39
2022-11-07T04:21:13.558Z,23.38
2022-11-07T04:23:40.631Z,23.39
2022-11-07T04:26:07.083Z,23.38
2022-11-07T04:28:42.091Z,23.38
2022-11-07T04:31:11.556Z,23.38
2022-11-07T04:33:39.116Z,23.37
2022-11-07T04:36:05.637Z,23.38
2022-11-07T04:38:32.035Z,23.36
2022-11-07T04:40:58.518Z,23.37
2022-11-07T04:43:28.140Z,23.36
2022-11-07T04:45:54.609Z,23.36
2022-11-07T04:48:21.021Z,23.36
2022-11-07T04:50:47.425Z,23.35
2022-11-07T04:53:14.225Z,23.35
2022-11-07T04:55:51.306Z,23.38
2022-11-07T04:58:17.808Z,23.37
2022-11-07T05:00:57.837Z,23.37
2022-11-07T05:03:25.714Z,23.37
2022-11-07T05:05:52.957Z,23.39
2022-11-07T05:08:30.159Z,23.38
2022-11-07T05:10:58.057Z,23.38
2022-11-07T05:13:28.768Z,23.38
2022-11-07T05:18:43.838Z,23.40
2022-11-07T05:21:15.650Z,23.39
2022-11-07T05:23:40.101Z,23.44
2022-11-07T05:26:11.358Z,23.37
2022-11-07T05:28:40.005Z,23.37
2022-11-07T05:31:06.002Z,23.48
2022-11-07T05:33:50.616Z,23.56
2022-11-07T05:36:14.698Z,23.57
2022-11-07T05:38:44.439Z,23.60
2022-11-07T05:41:15.341Z,23.57
2022-11-07T05:43:46.443Z,23.57
2022-11-07T05:46:28.145Z,23.58
2022-11-07T05:48:56.649Z,23.59
2022-11-07T05:54:13.086Z,23.64
2022-11-07T05:56:42.497Z,23.65
2022-11-07T05:59:07.968Z,23.66
2022-11-07T06:01:41.610Z,23.70
2022-11-07T06:04:15.346Z,23.72
2022-11-07T06:09:45.829Z,23.75
2022-11-07T06:12:31.303Z,23.78
2022-11-07T06:15:13.712Z,23.82
2022-11-07T06:17:42.342Z,23.81
2022-11-07T06:20:23.649Z,23.84
2022-11-07T06:22:51.751Z,23.85
2022-11-07T06:28:15.262Z,23.90
2022-11-07T06:30:48.904Z,23.90
2022-11-07T06:36:16.190Z,23.91
2022-11-07T06:49:49.225Z,23.95
2022-11-07T06:52:30.282Z,23.96
2022-11-07T07:12:13.883Z,24.02
2022-11-07T07:14:34.637Z,24.11
2022-11-07T07:23:00.118Z,24.09
2022-11-07T07:33:51.240Z,24.29
2022-11-07T07:50:26.980Z,24.25
2022-11-07T07:55:55.302Z,24.35
2022-11-07T07:58:34.718Z,24.22
2022-11-07T08:01:17.417Z,24.26
2022-11-07T08:09:25.744Z,24.33
2022-11-07T08:12:15.149Z,24.69
2022-11-07T08:17:43.266Z,24.30
2022-11-07T08:20:34.978Z,24.37
2022-11-07T08:28:35.750Z,24.64
2022-11-07T08:36:53.248Z,24.84
2022-11-07T08:39:34.260Z,24.81
2022-11-07T08:45:13.428Z,24.94
2022-11-07T08:47:51.743Z,24.86
2022-11-07T08:53:11.558Z,24.90
2022-11-07T08:58:36.525Z,25.01
2022-11-07T09:17:49.999Z,25.22
2022-11-07T09:39:48.955Z,25.33
2022-11-07T09:56:10.441Z,25.52
2022-11-07T09:58:40.112Z,25.36
2022-11-07T10:01:11.995Z,25.45
2022-11-07T10:04:10.156Z,25.43
2022-11-07T10:06:12.464Z,25.16
2022-11-07T10:08:44.236Z,25.47
2022-11-07T10:11:25.985Z,25.24
2022-11-07T10:14:00.860Z,25.11
2022-11-07T10:19:21.799Z,25.56
2022-11-07T10:21:50.857Z,25.65
2022-11-07T10:24:23.224Z,25.61
2022-11-07T10:32:27.282Z,25.59
2022-11-07T10:48:52.745Z,25.47
2022-11-07T10:56:54.679Z,25.69
2022-11-07T10:59:22.652Z,25.70
2022-11-07T11:01:51.321Z,25.66
2022-11-07T11:07:31.604Z,25.46
2022-11-07T11:10:00.773Z,25.53
2022-11-07T11:12:34.312Z,25.67
2022-11-07T11:17:49.938Z,25.67
2022-11-07T11:23:07.250Z,25.58
2022-11-07T11:25:34.643Z,25.61
2022-11-07T11:42:12.204Z,25.36
2022-11-07T11:47:41.944Z,25.40
2022-11-07T11:50:09.496Z,25.40
2022-11-07T11:55:37.992Z,25.50
2022-11-07T11:58:07.785Z,25.58
2022-11-07T12:06:19.321Z,25.37
2022-11-07T12:11:42.799Z,25.42
2022-11-07T12:22:28.097Z,25.35
2022-11-07T12:30:42.780Z,25.44
2022-11-07T12:33:07.422Z,25.54
2022-11-07T12:35:48.777Z,25.43
2022-11-07T12:38:20.478Z,25.41
2022-11-07T12:49:36.229Z,25.44
2022-11-07T12:54:53.559Z,25.47
2022-11-07T13:11:16.558Z,25.42
2022-11-07T13:13:47.476Z,25.41
2022-11-07T13:16:32.586Z,25.48
2022-11-07T13:35:52.619Z,25.81
2022-11-07T13:38:35.742Z,25.59
2022-11-07T13:41:20.743Z,25.62
2022-11-07T13:46:30.717Z,25.53
2022-11-07T13:49:03.668Z,25.57
2022-11-07T13:54:24.583Z,25.55
2022-11-07T13:57:06.321Z,25.65
2022-11-07T14:02:29.908Z,25.60
2022-11-07T14:05:16.255Z,25.55
2022-11-07T14:07:48.250Z,25.63
2022-11-07T14:10:16.312Z,25.64
2022-11-07T14:15:39.169Z,25.75
2022-11-07T14:18:14.717Z,25.79
2022-11-07T14:20:56.126Z,25.98
2022-11-07T14:23:24.926Z,26.00
2022-11-07T14:28:49.218Z,25.77
2022-11-07T14:31:10.115Z,25.73
2022-11-07T14:33:37.889Z,25.66
2022-11-07T14:41:40.579Z,25.59
2022-11-07T14:44:22.942Z,25.59
2022-11-07T14:49:51.541Z,25.59
2022-11-07T14:52:24.288Z,25.59
2022-11-07T14:55:10.337Z,25.58
2022-11-07T14:57:31.634Z,25.62
2022-11-07T14:59:58.021Z,25.61
2022-11-07T15:02:24.510Z,25.44
2022-11-07T15:04:50.811Z,25.24
2022-11-07T15:07:17.274Z,25.05
2022-11-07T15:09:43.670Z,24.86
2022-11-07T15:12:10.056Z,24.75
2022-11-07T15:14:36.451Z,24.69
2022-11-07T15:17:05.135Z,24.70
2022-11-07T15:19:31.521Z,24.69
2022-11-07T15:21:57.920Z,24.50
2022-11-07T15:24:24.372Z,24.56
2022-11-07T15:26:50.813Z,24.61
2022-11-07T15:29:17.198Z,24.61
2022-11-07T15:31:43.594Z,24.59
2022-11-07T15:34:09.968Z,24.67
2022-11-07T15:36:40.823Z,24.66
2022-11-07T15:39:02.796Z,24.67
2022-11-07T15:41:31.149Z,24.70
2022-11-07T15:43:55.623Z,24.71
2022-11-07T15:46:22.042Z,24.70
2022-11-07T15:48:48.437Z,24.75
2022-11-07T15:51:14.834Z,24.82
2022-11-07T15:53:41.223Z,24.84
2022-11-07T15:56:07.627Z,24.82
2022-11-07T15:58:33.993Z,24.79
2022-11-07T16:01:00.564Z,24.83
2022-11-07T16:03:26.821Z,24.59
2022-11-07T16:05:53.198Z,24.61
2022-11-07T16:08:19.824Z,24.78
2022-11-07T16:10:47.369Z,24.82
2022-11-07T16:13:14.035Z,24.84
2022-11-07T16:15:38.757Z,24.82
2022-11-07T16:18:05.188Z,24.84
2022-11-07T16:20:31.570Z,24.86
2022-11-07T16:22:57.957Z,24.76
2022-11-07T16:25:24.349Z,24.75
2022-11-07T16:27:50.724Z,24.78
2022-11-07T16:30:17.179Z,24.82
2022-11-07T16:32:43.572Z,24.85
2022-11-07T16:35:09.967Z,24.80
2022-11-07T16:37:36.349Z,24.79
2022-11-07T16:40:02.729Z,24.75
2022-11-07T16:42:29.117Z,24.77
2022-11-07T16:44:55.548Z,24.66
2022-11-07T16:47:22.082Z,24.76
2022-11-07T16:49:51.044Z,24.74
2022-11-07T16:52:14.868Z,24.72
2022-11-07T16:54:41.242Z,24.75
2022-11-07T16:57:07.625Z,24.75
2022-11-07T16:59:34.013Z,24.76
2022-11-07T17:02:00.628Z,24.70
2022-11-07T17:04:26.873Z,24.76
2022-11-07T17:06:53.269Z,24.58
2022-11-07T17:09:19.917Z,24.59
2022-11-07T17:11:46.315Z,24.54
2022-11-07T17:14:12.709Z,24.52
2022-11-07T17:16:39.084Z,24.51
2022-11-07T17:19:05.468Z,24.52
2022-11-07T17:21:31.856Z,24.51
2022-11-07T17:23:58.255Z,24.51
2022-11-07T17:26:24.630Z,24.41
2022-11-07T17:28:51.019Z,24.46
2022-11-07T17:31:17.408Z,24.39
2022-11-07T17:33:43.802Z,24.43
2022-11-07T17:36:10.192Z,24.33
2022-11-07T17:38:36.573Z,24.39
2022-11-07T17:41:02.987Z,24.29
2022-11-07T17:43:29.415Z,24.37
2022-11-07T17:45:55.789Z,24.37
2022-11-07T17:48:22.252Z,24.36
2022-11-07T17:50:48.631Z,24.37
2022-11-07T17:53:15.030Z,24.33
2022-11-07T17:55:41.454Z,24.25
2022-11-07T17:58:08.035Z,24.25
2022-11-07T18:00:34.421Z,24.30
2022-11-07T18:03:00.950Z,24.32
2022-11-07T18:05:32.921Z,24.30
2022-11-07T18:07:53.590Z,24.31
2022-11-07T18:10:19.969Z,24.31
2022-11-07T18:12:46.363Z,24.31
2022-11-07T18:15:13.041Z,24.31
2022-11-07T18:17:39.158Z,24.29
2022-11-07T18:20:07.361Z,24.28
2022-11-07T18:22:31.931Z,24.21
2022-11-07T18:24:58.314Z,24.19
2022-11-07T18:27:24.712Z,24.19
2022-11-07T18:29:51.144Z,24.19
2022-11-07T18:32:17.465Z,24.25
2022-11-07T18:34:43.815Z,24.22
2022-11-07T18:37:10.192Z,24.22
2022-11-07T18:39:36.525Z,24.21
2022-11-07T18:42:02.872Z,24.13
2022-11-07T18:44:29.259Z,24.13
2022-11-07T18:46:55.604Z,24.22
2022-11-07T18:49:21.972Z,24.12
2022-11-07T18:51:48.299Z,24.12
2022-11-07T18:54:14.638Z,24.18
2022-11-07T18:56:40.999Z,24.18
2022-11-07T18:59:07.363Z,24.17
2022-11-07T19:01:33.799Z,24.00
2022-11-07T19:04:00.047Z,24.14
2022-11-07T19:06:26.385Z,24.19
2022-11-07T19:08:52.725Z,24.18
2022-11-07T19:11:19.069Z,24.19
2022-11-07T19:13:45.444Z,24.10
2022-11-07T19:16:11.774Z,24.08
2022-11-07T19:18:38.111Z,24.15
2022-11-07T19:21:04.455Z,24.10
2022-11-07T19:23:30.797Z,24.17
2022-11-07T19:25:57.138Z,24.17
2022-11-07T19:28:23.474Z,24.03
2022-11-07T19:30:49.832Z,24.18
2022-11-07T19:33:16.473Z,24.15
2022-11-07T19:35:42.543Z,24.12
2022-11-07T19:38:09.283Z,24.03
2022-11-07T19:40:35.243Z,24.11
2022-11-07T19:43:01.577Z,24.11
2022-11-07T19:45:27.947Z,24.12
2022-11-07T19:47:54.285Z,24.10
2022-11-07T19:50:20.630Z,24.16
2022-11-07T19:52:46.974Z,24.16
2022-11-07T19:55:13.313Z,23.98
2022-11-07T19:57:39.650Z,23.98
2022-11-07T20:00:05.989Z,24.16
2022-11-07T20:02:35.447Z,24.13
2022-11-07T20:04:58.683Z,24.14
2022-11-07T20:07:25.018Z,24.15
2022-11-07T20:09:51.360Z,24.02
2022-11-07T20:12:17.711Z,24.13
2022-11-07T20:14:44.057Z,24.13
2022-11-07T20:17:10.399Z,24.06
2022-11-07T20:19:36.742Z,24.10
2022-11-07T20:22:03.081Z,24.10
2022-11-07T20:24:29.432Z,24.11
2022-11-07T20:26:55.775Z,24.09
2022-11-07T20:29:22.113Z,24.09
2022-11-07T20:31:48.461Z,24.02
2022-11-07T20:34:14.797Z,24.11
2022-11-07T20:36:41.141Z,24.12
2022-11-07T20:39:07.495Z,24.12
2022-11-07T20:41:33.839Z,24.10
2022-11-07T20:44:00.181Z,24.11
2022-11-07T20:46:26.524Z,24.05
2022-11-07T20:48:52.862Z,24.02
2022-11-07T20:51:19.215Z,24.01
2022-11-07T20:53:49.726Z,24.12
2022-11-07T20:56:11.930Z,24.07
2022-11-07T20:58:38.272Z,24.08
2022-11-07T21:01:04.871Z,23.99
2022-11-07T21:03:30.951Z,24.06
2022-11-07T21:05:57.298Z,24.06
2022-11-07T21:08:23.629Z,24.08
2022-11-07T21:10:49.961Z,23.94
2022-11-07T21:13:16.602Z,23.94
2022-11-07T21:15:42.656Z,24.01
2022-11-07T21:18:10.232Z,24.00
2022-11-07T21:20:36.568Z,23.99
2022-11-07T21:23:01.682Z,23.99
2022-11-07T21:25:28.021Z,23.98
2022-11-07T21:27:54.363Z,23.98
2022-11-07T21:30:20.712Z,23.97
2022-11-07T21:32:47.056Z,23.96
2022-11-07T21:35:13.406Z,23.97
2022-11-07T21:37:39.751Z,23.94
2022-11-07T21:40:07.374Z,23.95
2022-11-07T21:42:32.449Z,23.94
2022-11-07T21:44:58.783Z,23.91
2022-11-07T21:47:25.207Z,23.94
2022-11-07T21:49:51.545Z,23.92
2022-11-07T21:52:17.897Z,23.92
2022-11-07T21:54:44.261Z,23.92
2022-11-07T21:57:10.596Z,23.91
2022-11-07T21:59:36.940Z,23.91
2022-11-07T22:02:03.363Z,23.91
2022-11-07T22:04:29.623Z,23.82
2022-11-07T22:06:55.961Z,23.82
2022-11-07T22:09:22.307Z,23.81
2022-11-07T22:11:48.677Z,23.81
2022-11-07T22:14:15.048Z,23.80
2022-11-07T22:16:41.452Z,23.80
2022-11-07T22:19:12.299Z,23.89
2022-11-07T22:21:34.095Z,23.88
2022-11-07T22:24:00.444Z,23.88
2022-11-07T22:26:26.789Z,23.87
2022-11-07T22:28:53.166Z,23.78
2022-11-07T22:31:19.505Z,23.78
2022-11-07T22:33:45.848Z,23.86
2022-11-07T22:36:12.228Z,23.87
2022-11-07T22:38:38.573Z,23.87
2022-11-07T22:41:04.910Z,23.86
2022-11-07T22:43:31.255Z,23.87
2022-11-07T22:45:57.597Z,23.86
2022-11-07T22:48:23.937Z,23.86
2022-11-07T22:50:50.282Z,23.85
2022-11-07T22:53:16.822Z,23.85
2022-11-07T22:55:43.046Z,23.85
2022-11-07T22:58:09.356Z,23.85
2022-11-07T23:00:35.689Z,23.84
2022-11-07T23:03:02.106Z,23.79
2022-11-07T23:05:28.373Z,23.84
2022-11-07T23:07:54.732Z,23.84
2022-11-07T23:10:21.089Z,23.84
2022-11-07T23:12:47.431Z,23.82
2022-11-07T23:15:13.777Z,23.82
2022-11-07T23:17:40.131Z,23.82
2022-11-07T23:20:06.475Z,23.76
2022-11-07T23:22:32.856Z,23.76
2022-11-07T23:24:59.187Z,23.82
2022-11-07T23:27:25.529Z,23.81
2022-11-07T23:29:51.877Z,23.82
2022-11-07T23:32:18.220Z,23.82
2022-11-07T23:34:44.553Z,23.80
2022-11-07T23:37:10.921Z,23.79
2022-11-07T23:39:37.277Z,23.79
2022-11-07T23:42:05.019Z,23.78
2022-11-07T23:44:29.995Z,23.79
2022-11-07T23:46:56.349Z,23.78
2022-11-07T23:49:22.721Z,23.80
2022-11-07T23:51:49.102Z,23.80
2022-11-07T23:54:15.440Z,23.78
2022-11-07T23:56:41.778Z,23.78
2022-11-07T23:59:08.115Z,23.78
